sensor_id;sensor_type;location;lat;lon;timestamp;P1;durP1;ratioP1;P2;durP2;ratioP2
31728;SDS011;18309;43.658;1.312;2023-07-08T00:00:20;15.50;;;2.45;;
31728;SDS011;18309;43.658;1.312;2023-07-08T00:02:47;4.45;;;1.98;;
31728;SDS011;18309;43.658;1.312;2023-07-08T00:05:13;5.38;;;1.83;;
31728;SDS011;18309;43.658;1.312;2023-07-08T00:07:40;8.45;;;2.63;;
31728;SDS011;18309;43.658;1.312;2023-07-08T00:10:20;6.45;;;2.35;;
31728;SDS011;18309;43.658;1.312;2023-07-08T00:12:49;6.80;;;2.33;;
31728;SDS011;18309;43.658;1.312;2023-07-08T00:15:16;8.50;;;2.00;;
31728;SDS011;18309;43.658;1.312;2023-07-08T00:17:47;6.93;;;1.73;;
31728;SDS011;18309;43.658;1.312;2023-07-08T00:20:23;8.38;;;2.40;;
31728;SDS011;18309;43.658;1.312;2023-07-08T00:22:55;8.00;;;2.33;;
31728;SDS011;18309;43.658;1.312;2023-07-08T00:25:21;10.18;;;2.70;;
31728;SDS011;18309;43.658;1.312;2023-07-08T00:27:47;7.05;;;2.35;;
31728;SDS011;18309;43.658;1.312;2023-07-08T00:30:26;12.15;;;2.50;;
31728;SDS011;18309;43.658;1.312;2023-07-08T00:32:54;5.07;;;2.50;;
31728;SDS011;18309;43.658;1.312;2023-07-08T00:35:35;10.15;;;2.75;;
31728;SDS011;18309;43.658;1.312;2023-07-08T00:38:01;6.78;;;2.40;;
31728;SDS011;18309;43.658;1.312;2023-07-08T00:40:37;8.30;;;2.55;;
31728;SDS011;18309;43.658;1.312;2023-07-08T00:43:13;16.33;;;3.35;;
31728;SDS011;18309;43.658;1.312;2023-07-08T00:45:44;12.75;;;2.80;;
31728;SDS011;18309;43.658;1.312;2023-07-08T00:48:22;7.47;;;2.58;;
31728;SDS011;18309;43.658;1.312;2023-07-08T00:50:52;8.80;;;3.08;;
31728;SDS011;18309;43.658;1.312;2023-07-08T00:55:58;9.30;;;3.05;;
31728;SDS011;18309;43.658;1.312;2023-07-08T00:58:32;9.15;;;3.20;;
31728;SDS011;18309;43.658;1.312;2023-07-08T01:01:04;11.52;;;3.80;;
31728;SDS011;18309;43.658;1.312;2023-07-08T01:03:31;7.40;;;3.00;;
31728;SDS011;18309;43.658;1.312;2023-07-08T01:06:06;27.33;;;4.05;;
31728;SDS011;18309;43.658;1.312;2023-07-08T01:08:31;11.88;;;3.17;;
31728;SDS011;18309;43.658;1.312;2023-07-08T01:11:01;11.85;;;3.83;;
31728;SDS011;18309;43.658;1.312;2023-07-08T01:13:33;8.73;;;3.30;;
31728;SDS011;18309;43.658;1.312;2023-07-08T01:16:02;8.23;;;3.22;;
31728;SDS011;18309;43.658;1.312;2023-07-08T01:18:28;8.82;;;3.42;;
31728;SDS011;18309;43.658;1.312;2023-07-08T01:20:55;14.43;;;3.83;;
31728;SDS011;18309;43.658;1.312;2023-07-08T01:23:21;7.60;;;3.58;;
31728;SDS011;18309;43.658;1.312;2023-07-08T01:25:48;8.60;;;4.05;;
31728;SDS011;18309;43.658;1.312;2023-07-08T01:28:14;16.40;;;3.83;;
31728;SDS011;18309;43.658;1.312;2023-07-08T01:30:41;7.85;;;3.25;;
31728;SDS011;18309;43.658;1.312;2023-07-08T01:33:12;5.90;;;3.10;;
31728;SDS011;18309;43.658;1.312;2023-07-08T01:35:43;17.55;;;4.00;;
31728;SDS011;18309;43.658;1.312;2023-07-08T01:38:10;15.60;;;3.58;;
31728;SDS011;18309;43.658;1.312;2023-07-08T01:40:46;13.50;;;4.35;;
31728;SDS011;18309;43.658;1.312;2023-07-08T01:43:14;8.80;;;3.70;;
31728;SDS011;18309;43.658;1.312;2023-07-08T01:45:40;11.63;;;3.47;;
31728;SDS011;18309;43.658;1.312;2023-07-08T01:48:08;11.40;;;4.20;;
31728;SDS011;18309;43.658;1.312;2023-07-08T01:50:37;12.27;;;4.07;;
31728;SDS011;18309;43.658;1.312;2023-07-08T01:53:08;17.48;;;4.78;;
31728;SDS011;18309;43.658;1.312;2023-07-08T01:55:38;11.80;;;4.30;;
31728;SDS011;18309;43.658;1.312;2023-07-08T01:58:04;16.33;;;4.90;;
31728;SDS011;18309;43.658;1.312;2023-07-08T02:00:30;19.15;;;4.32;;
31728;SDS011;18309;43.658;1.312;2023-07-08T02:02:55;12.57;;;4.50;;
31728;SDS011;18309;43.658;1.312;2023-07-08T02:05:22;12.70;;;4.50;;
31728;SDS011;18309;43.658;1.312;2023-07-08T02:07:48;9.27;;;4.03;;
31728;SDS011;18309;43.658;1.312;2023-07-08T02:10:14;9.40;;;3.80;;
31728;SDS011;18309;43.658;1.312;2023-07-08T02:12:40;9.52;;;4.30;;
31728;SDS011;18309;43.658;1.312;2023-07-08T02:15:06;14.35;;;4.55;;
31728;SDS011;18309;43.658;1.312;2023-07-08T02:17:33;12.73;;;4.15;;
31728;SDS011;18309;43.658;1.312;2023-07-08T02:19:59;12.82;;;4.85;;
31728;SDS011;18309;43.658;1.312;2023-07-08T02:22:24;8.73;;;4.00;;
31728;SDS011;18309;43.658;1.312;2023-07-08T02:24:50;10.82;;;4.10;;
31728;SDS011;18309;43.658;1.312;2023-07-08T02:27:16;13.13;;;5.05;;
31728;SDS011;18309;43.658;1.312;2023-07-08T02:29:41;10.25;;;4.32;;
31728;SDS011;18309;43.658;1.312;2023-07-08T02:32:08;14.35;;;4.47;;
31728;SDS011;18309;43.658;1.312;2023-07-08T02:34:37;9.73;;;4.55;;
31728;SDS011;18309;43.658;1.312;2023-07-08T02:37:03;15.35;;;4.47;;
31728;SDS011;18309;43.658;1.312;2023-07-08T02:39:29;11.98;;;5.13;;
31728;SDS011;18309;43.658;1.312;2023-07-08T02:41:55;13.98;;;5.18;;
31728;SDS011;18309;43.658;1.312;2023-07-08T02:44:21;9.68;;;4.22;;
31728;SDS011;18309;43.658;1.312;2023-07-08T02:46:47;17.42;;;4.38;;
31728;SDS011;18309;43.658;1.312;2023-07-08T02:49:13;17.33;;;5.25;;
31728;SDS011;18309;43.658;1.312;2023-07-08T02:51:38;13.23;;;4.22;;
31728;SDS011;18309;43.658;1.312;2023-07-08T02:54:04;6.97;;;4.75;;
31728;SDS011;18309;43.658;1.312;2023-07-08T02:56:30;22.73;;;5.88;;
31728;SDS011;18309;43.658;1.312;2023-07-08T02:58:55;25.27;;;5.10;;
31728;SDS011;18309;43.658;1.312;2023-07-08T03:01:21;10.88;;;4.18;;
31728;SDS011;18309;43.658;1.312;2023-07-08T03:03:48;9.13;;;4.18;;
31728;SDS011;18309;43.658;1.312;2023-07-08T03:06:15;15.02;;;4.80;;
31728;SDS011;18309;43.658;1.312;2023-07-08T03:08:41;15.07;;;4.85;;
31728;SDS011;18309;43.658;1.312;2023-07-08T03:11:07;18.20;;;4.88;;
31728;SDS011;18309;43.658;1.312;2023-07-08T03:13:37;15.55;;;4.78;;
31728;SDS011;18309;43.658;1.312;2023-07-08T03:16:03;16.42;;;4.47;;
31728;SDS011;18309;43.658;1.312;2023-07-08T03:18:38;20.30;;;5.15;;
31728;SDS011;18309;43.658;1.312;2023-07-08T03:21:10;15.85;;;4.95;;
31728;SDS011;18309;43.658;1.312;2023-07-08T03:23:37;14.15;;;4.55;;
31728;SDS011;18309;43.658;1.312;2023-07-08T03:26:03;17.30;;;4.43;;
31728;SDS011;18309;43.658;1.312;2023-07-08T03:28:29;16.75;;;5.47;;
31728;SDS011;18309;43.658;1.312;2023-07-08T03:30:55;15.05;;;5.20;;
31728;SDS011;18309;43.658;1.312;2023-07-08T03:33:20;13.30;;;4.80;;
31728;SDS011;18309;43.658;1.312;2023-07-08T03:35:46;14.13;;;5.07;;
31728;SDS011;18309;43.658;1.312;2023-07-08T03:38:12;11.85;;;4.30;;
31728;SDS011;18309;43.658;1.312;2023-07-08T03:40:38;18.00;;;4.47;;
31728;SDS011;18309;43.658;1.312;2023-07-08T03:43:03;23.77;;;4.95;;
31728;SDS011;18309;43.658;1.312;2023-07-08T03:45:29;14.70;;;4.50;;
31728;SDS011;18309;43.658;1.312;2023-07-08T03:47:54;17.88;;;4.85;;
31728;SDS011;18309;43.658;1.312;2023-07-08T03:50:22;12.95;;;4.43;;
31728;SDS011;18309;43.658;1.312;2023-07-08T03:52:49;15.10;;;3.80;;
31728;SDS011;18309;43.658;1.312;2023-07-08T03:55:17;9.40;;;4.65;;
31728;SDS011;18309;43.658;1.312;2023-07-08T03:57:43;15.23;;;5.13;;
31728;SDS011;18309;43.658;1.312;2023-07-08T04:00:09;14.88;;;4.38;;
31728;SDS011;18309;43.658;1.312;2023-07-08T04:02:37;10.50;;;4.32;;
31728;SDS011;18309;43.658;1.312;2023-07-08T04:05:04;11.85;;;4.95;;
31728;SDS011;18309;43.658;1.312;2023-07-08T04:07:30;9.93;;;3.95;;
31728;SDS011;18309;43.658;1.312;2023-07-08T04:09:56;9.02;;;4.10;;
31728;SDS011;18309;43.658;1.312;2023-07-08T04:12:22;12.02;;;4.55;;
31728;SDS011;18309;43.658;1.312;2023-07-08T04:14:47;10.48;;;4.10;;
31728;SDS011;18309;43.658;1.312;2023-07-08T04:17:13;13.27;;;4.93;;
31728;SDS011;18309;43.658;1.312;2023-07-08T04:19:39;13.50;;;4.13;;
31728;SDS011;18309;43.658;1.312;2023-07-08T04:22:09;12.68;;;4.45;;
31728;SDS011;18309;43.658;1.312;2023-07-08T04:24:35;11.63;;;4.72;;
31728;SDS011;18309;43.658;1.312;2023-07-08T04:27:01;14.63;;;4.63;;
31728;SDS011;18309;43.658;1.312;2023-07-08T04:29:27;16.05;;;4.88;;
31728;SDS011;18309;43.658;1.312;2023-07-08T04:31:53;10.63;;;4.65;;
31728;SDS011;18309;43.658;1.312;2023-07-08T04:34:19;11.15;;;4.25;;
31728;SDS011;18309;43.658;1.312;2023-07-08T04:36:45;15.82;;;4.35;;
31728;SDS011;18309;43.658;1.312;2023-07-08T04:39:11;17.80;;;4.63;;
31728;SDS011;18309;43.658;1.312;2023-07-08T04:41:38;29.27;;;5.32;;
31728;SDS011;18309;43.658;1.312;2023-07-08T04:44:11;10.10;;;4.22;;
31728;SDS011;18309;43.658;1.312;2023-07-08T04:46:39;22.50;;;5.00;;
31728;SDS011;18309;43.658;1.312;2023-07-08T04:49:13;13.23;;;5.65;;
31728;SDS011;18309;43.658;1.312;2023-07-08T04:51:39;13.85;;;5.18;;
31728;SDS011;18309;43.658;1.312;2023-07-08T04:54:05;11.82;;;4.45;;
31728;SDS011;18309;43.658;1.312;2023-07-08T04:59:09;19.90;;;5.25;;
31728;SDS011;18309;43.658;1.312;2023-07-08T05:01:38;13.52;;;4.60;;
31728;SDS011;18309;43.658;1.312;2023-07-08T05:04:04;11.90;;;4.65;;
31728;SDS011;18309;43.658;1.312;2023-07-08T05:06:30;11.73;;;4.70;;
31728;SDS011;18309;43.658;1.312;2023-07-08T05:08:58;11.10;;;4.55;;
31728;SDS011;18309;43.658;1.312;2023-07-08T05:11:24;19.77;;;4.88;;
31728;SDS011;18309;43.658;1.312;2023-07-08T05:13:50;14.95;;;4.85;;
31728;SDS011;18309;43.658;1.312;2023-07-08T05:16:16;17.33;;;4.88;;
31728;SDS011;18309;43.658;1.312;2023-07-08T05:18:41;15.63;;;5.10;;
31728;SDS011;18309;43.658;1.312;2023-07-08T05:21:08;14.85;;;4.72;;
31728;SDS011;18309;43.658;1.312;2023-07-08T05:23:35;13.50;;;5.13;;
31728;SDS011;18309;43.658;1.312;2023-07-08T05:26:01;14.38;;;4.68;;
31728;SDS011;18309;43.658;1.312;2023-07-08T05:28:28;15.27;;;5.22;;
31728;SDS011;18309;43.658;1.312;2023-07-08T05:30:54;16.00;;;5.90;;
31728;SDS011;18309;43.658;1.312;2023-07-08T05:33:24;14.32;;;5.03;;
31728;SDS011;18309;43.658;1.312;2023-07-08T05:35:51;19.52;;;5.40;;
31728;SDS011;18309;43.658;1.312;2023-07-08T05:38:17;13.50;;;4.85;;
31728;SDS011;18309;43.658;1.312;2023-07-08T05:40:43;18.30;;;5.07;;
31728;SDS011;18309;43.658;1.312;2023-07-08T05:43:12;15.60;;;5.75;;
31728;SDS011;18309;43.658;1.312;2023-07-08T05:45:38;18.10;;;4.95;;
31728;SDS011;18309;43.658;1.312;2023-07-08T05:48:04;14.38;;;4.82;;
31728;SDS011;18309;43.658;1.312;2023-07-08T05:50:30;14.65;;;4.93;;
31728;SDS011;18309;43.658;1.312;2023-07-08T05:52:56;21.05;;;5.32;;
31728;SDS011;18309;43.658;1.312;2023-07-08T05:55:21;10.63;;;4.93;;
31728;SDS011;18309;43.658;1.312;2023-07-08T05:57:47;15.75;;;5.38;;
31728;SDS011;18309;43.658;1.312;2023-07-08T06:00:13;14.50;;;4.93;;
31728;SDS011;18309;43.658;1.312;2023-07-08T06:02:39;20.98;;;5.53;;
31728;SDS011;18309;43.658;1.312;2023-07-08T06:05:04;18.05;;;5.85;;
31728;SDS011;18309;43.658;1.312;2023-07-08T06:07:30;20.48;;;5.22;;
31728;SDS011;18309;43.658;1.312;2023-07-08T06:09:57;17.55;;;5.90;;
31728;SDS011;18309;43.658;1.312;2023-07-08T06:12:24;17.95;;;5.57;;
31728;SDS011;18309;43.658;1.312;2023-07-08T06:14:50;13.02;;;6.55;;
31728;SDS011;18309;43.658;1.312;2023-07-08T06:17:16;16.73;;;5.35;;
31728;SDS011;18309;43.658;1.312;2023-07-08T06:19:42;13.75;;;5.47;;
31728;SDS011;18309;43.658;1.312;2023-07-08T06:22:08;15.98;;;5.90;;
31728;SDS011;18309;43.658;1.312;2023-07-08T06:24:34;21.73;;;5.95;;
31728;SDS011;18309;43.658;1.312;2023-07-08T06:27:00;15.23;;;5.72;;
31728;SDS011;18309;43.658;1.312;2023-07-08T06:29:26;14.82;;;5.00;;
31728;SDS011;18309;43.658;1.312;2023-07-08T06:31:52;21.17;;;6.35;;
31728;SDS011;18309;43.658;1.312;2023-07-08T06:34:19;18.27;;;5.60;;
31728;SDS011;18309;43.658;1.312;2023-07-08T06:36:48;17.45;;;6.05;;
31728;SDS011;18309;43.658;1.312;2023-07-08T06:39:14;16.33;;;6.15;;
31728;SDS011;18309;43.658;1.312;2023-07-08T06:41:39;24.25;;;7.13;;
31728;SDS011;18309;43.658;1.312;2023-07-08T06:44:05;20.02;;;6.03;;
31728;SDS011;18309;43.658;1.312;2023-07-08T06:46:31;17.45;;;6.38;;
31728;SDS011;18309;43.658;1.312;2023-07-08T06:48:56;16.27;;;6.40;;
31728;SDS011;18309;43.658;1.312;2023-07-08T06:51:22;17.35;;;6.22;;
31728;SDS011;18309;43.658;1.312;2023-07-08T06:53:48;17.27;;;5.68;;
31728;SDS011;18309;43.658;1.312;2023-07-08T06:56:13;18.17;;;6.72;;
31728;SDS011;18309;43.658;1.312;2023-07-08T06:58:39;20.05;;;6.80;;
31728;SDS011;18309;43.658;1.312;2023-07-08T07:01:05;17.63;;;5.93;;
31728;SDS011;18309;43.658;1.312;2023-07-08T07:03:30;24.10;;;6.53;;
31728;SDS011;18309;43.658;1.312;2023-07-08T07:05:56;21.15;;;6.18;;
31728;SDS011;18309;43.658;1.312;2023-07-08T07:08:23;19.38;;;6.50;;
31728;SDS011;18309;43.658;1.312;2023-07-08T07:10:49;16.40;;;5.60;;
31728;SDS011;18309;43.658;1.312;2023-07-08T07:13:14;16.73;;;6.28;;
31728;SDS011;18309;43.658;1.312;2023-07-08T07:15:40;19.05;;;5.93;;
31728;SDS011;18309;43.658;1.312;2023-07-08T07:18:06;18.30;;;6.05;;
31728;SDS011;18309;43.658;1.312;2023-07-08T07:20:32;21.15;;;6.05;;
31728;SDS011;18309;43.658;1.312;2023-07-08T07:22:58;21.48;;;5.72;;
31728;SDS011;18309;43.658;1.312;2023-07-08T07:25:24;15.43;;;5.75;;
31728;SDS011;18309;43.658;1.312;2023-07-08T07:27:50;18.70;;;5.95;;
31728;SDS011;18309;43.658;1.312;2023-07-08T07:30:19;24.38;;;5.93;;
31728;SDS011;18309;43.658;1.312;2023-07-08T07:32:44;19.67;;;5.78;;
31728;SDS011;18309;43.658;1.312;2023-07-08T07:35:10;21.05;;;5.53;;
31728;SDS011;18309;43.658;1.312;2023-07-08T07:37:39;16.75;;;5.35;;
31728;SDS011;18309;43.658;1.312;2023-07-08T07:40:14;19.63;;;5.60;;
31728;SDS011;18309;43.658;1.312;2023-07-08T07:42:40;29.02;;;5.57;;
31728;SDS011;18309;43.658;1.312;2023-07-08T07:45:08;19.45;;;6.30;;
31728;SDS011;18309;43.658;1.312;2023-07-08T07:47:34;23.13;;;5.78;;
31728;SDS011;18309;43.658;1.312;2023-07-08T07:50:02;20.52;;;5.45;;
31728;SDS011;18309;43.658;1.312;2023-07-08T07:52:31;15.88;;;4.95;;
31728;SDS011;18309;43.658;1.312;2023-07-08T07:54:57;16.35;;;5.47;;
31728;SDS011;18309;43.658;1.312;2023-07-08T07:57:23;15.52;;;5.20;;
31728;SDS011;18309;43.658;1.312;2023-07-08T07:59:49;18.33;;;5.25;;
31728;SDS011;18309;43.658;1.312;2023-07-08T08:02:15;18.08;;;5.43;;
31728;SDS011;18309;43.658;1.312;2023-07-08T08:04:41;20.27;;;5.45;;
31728;SDS011;18309;43.658;1.312;2023-07-08T08:07:07;19.40;;;5.40;;
31728;SDS011;18309;43.658;1.312;2023-07-08T08:09:33;19.05;;;6.20;;
31728;SDS011;18309;43.658;1.312;2023-07-08T08:12:00;20.77;;;5.63;;
31728;SDS011;18309;43.658;1.312;2023-07-08T08:14:27;21.98;;;6.07;;
31728;SDS011;18309;43.658;1.312;2023-07-08T08:16:53;14.30;;;5.95;;
31728;SDS011;18309;43.658;1.312;2023-07-08T08:19:18;14.35;;;5.18;;
31728;SDS011;18309;43.658;1.312;2023-07-08T08:21:44;15.57;;;4.57;;
31728;SDS011;18309;43.658;1.312;2023-07-08T08:24:10;20.65;;;4.95;;
31728;SDS011;18309;43.658;1.312;2023-07-08T08:26:35;17.13;;;5.15;;
31728;SDS011;18309;43.658;1.312;2023-07-08T08:29:01;15.63;;;5.13;;
31728;SDS011;18309;43.658;1.312;2023-07-08T08:31:27;15.57;;;4.88;;
31728;SDS011;18309;43.658;1.312;2023-07-08T08:33:53;26.00;;;5.50;;
31728;SDS011;18309;43.658;1.312;2023-07-08T08:36:19;21.17;;;5.35;;
31728;SDS011;18309;43.658;1.312;2023-07-08T08:38:45;18.48;;;5.80;;
31728;SDS011;18309;43.658;1.312;2023-07-08T08:41:12;17.52;;;5.25;;
31728;SDS011;18309;43.658;1.312;2023-07-08T08:43:39;17.35;;;5.30;;
31728;SDS011;18309;43.658;1.312;2023-07-08T08:48:59;19.92;;;5.90;;
31728;SDS011;18309;43.658;1.312;2023-07-08T08:51:48;14.35;;;5.55;;
31728;SDS011;18309;43.658;1.312;2023-07-08T08:54:15;17.73;;;5.18;;
31728;SDS011;18309;43.658;1.312;2023-07-08T08:59:09;18.15;;;5.53;;
31728;SDS011;18309;43.658;1.312;2023-07-08T09:01:49;19.23;;;5.28;;
31728;SDS011;18309;43.658;1.312;2023-07-08T09:04:17;16.77;;;5.78;;
31728;SDS011;18309;43.658;1.312;2023-07-08T09:06:47;13.02;;;6.22;;
31728;SDS011;18309;43.658;1.312;2023-07-08T09:09:47;20.20;;;5.25;;
31728;SDS011;18309;43.658;1.312;2023-07-08T09:12:20;20.55;;;5.55;;
31728;SDS011;18309;43.658;1.312;2023-07-08T09:14:48;13.93;;;4.88;;
31728;SDS011;18309;43.658;1.312;2023-07-08T09:19:57;14.80;;;5.40;;
31728;SDS011;18309;43.658;1.312;2023-07-08T09:22:41;14.43;;;5.07;;
31728;SDS011;18309;43.658;1.312;2023-07-08T09:27:58;18.05;;;6.00;;
31728;SDS011;18309;43.658;1.312;2023-07-08T09:30:24;24.20;;;5.57;;
31728;SDS011;18309;43.658;1.312;2023-07-08T09:32:51;24.42;;;6.10;;
31728;SDS011;18309;43.658;1.312;2023-07-08T09:35:18;16.65;;;4.80;;
31728;SDS011;18309;43.658;1.312;2023-07-08T09:37:47;17.60;;;6.10;;
31728;SDS011;18309;43.658;1.312;2023-07-08T09:45:24;14.40;;;5.10;;
31728;SDS011;18309;43.658;1.312;2023-07-08T09:47:56;21.33;;;5.97;;
31728;SDS011;18309;43.658;1.312;2023-07-08T09:50:23;23.25;;;6.15;;
31728;SDS011;18309;43.658;1.312;2023-07-08T09:52:57;15.23;;;4.85;;
31728;SDS011;18309;43.658;1.312;2023-07-08T09:55:26;22.48;;;6.38;;
31728;SDS011;18309;43.658;1.312;2023-07-08T09:57:54;14.90;;;5.25;;
31728;SDS011;18309;43.658;1.312;2023-07-08T10:00:34;17.98;;;5.55;;
31728;SDS011;18309;43.658;1.312;2023-07-08T10:03:26;19.30;;;5.88;;
31728;SDS011;18309;43.658;1.312;2023-07-08T10:05:52;15.20;;;4.88;;
31728;SDS011;18309;43.658;1.312;2023-07-08T10:08:28;18.30;;;5.63;;
31728;SDS011;18309;43.658;1.312;2023-07-08T10:14:03;21.60;;;5.75;;
31728;SDS011;18309;43.658;1.312;2023-07-08T10:16:37;18.85;;;5.53;;
31728;SDS011;18309;43.658;1.312;2023-07-08T10:19:09;20.85;;;6.30;;
31728;SDS011;18309;43.658;1.312;2023-07-08T10:35:21;25.73;;;5.60;;
31728;SDS011;18309;43.658;1.312;2023-07-08T11:00:44;20.77;;;5.97;;
31728;SDS011;18309;43.658;1.312;2023-07-08T11:07:52;22.00;;;6.07;;
31728;SDS011;18309;43.658;1.312;2023-07-08T11:10:36;21.30;;;6.00;;
31728;SDS011;18309;43.658;1.312;2023-07-08T11:13:15;20.42;;;5.65;;
31728;SDS011;18309;43.658;1.312;2023-07-08T11:18:30;22.92;;;5.60;;
31728;SDS011;18309;43.658;1.312;2023-07-08T11:21:41;15.05;;;5.65;;
31728;SDS011;18309;43.658;1.312;2023-07-08T11:24:07;18.70;;;5.38;;
31728;SDS011;18309;43.658;1.312;2023-07-08T11:26:50;18.58;;;5.95;;
31728;SDS011;18309;43.658;1.312;2023-07-08T11:29:25;15.32;;;5.15;;
31728;SDS011;18309;43.658;1.312;2023-07-08T11:31:51;17.73;;;5.22;;
31728;SDS011;18309;43.658;1.312;2023-07-08T11:34:19;15.18;;;5.55;;
31728;SDS011;18309;43.658;1.312;2023-07-08T11:36:46;19.33;;;5.45;;
31728;SDS011;18309;43.658;1.312;2023-07-08T11:39:31;17.52;;;5.28;;
31728;SDS011;18309;43.658;1.312;2023-07-08T11:42:05;17.23;;;5.25;;
31728;SDS011;18309;43.658;1.312;2023-07-08T11:44:56;17.33;;;6.00;;
31728;SDS011;18309;43.658;1.312;2023-07-08T11:47:41;16.92;;;5.82;;
31728;SDS011;18309;43.658;1.312;2023-07-08T11:50:19;18.48;;;4.93;;
31728;SDS011;18309;43.658;1.312;2023-07-08T11:52:59;18.50;;;5.45;;
31728;SDS011;18309;43.658;1.312;2023-07-08T11:55:28;18.80;;;5.57;;
31728;SDS011;18309;43.658;1.312;2023-07-08T11:58:08;19.20;;;5.05;;
31728;SDS011;18309;43.658;1.312;2023-07-08T12:03:36;19.83;;;5.18;;
31728;SDS011;18309;43.658;1.312;2023-07-08T12:08:59;19.17;;;5.22;;
31728;SDS011;18309;43.658;1.312;2023-07-08T12:11:39;19.95;;;5.82;;
31728;SDS011;18309;43.658;1.312;2023-07-08T12:14:08;19.65;;;5.57;;
31728;SDS011;18309;43.658;1.312;2023-07-08T12:16:34;21.75;;;5.50;;
31728;SDS011;18309;43.658;1.312;2023-07-08T12:19:01;14.88;;;5.55;;
31728;SDS011;18309;43.658;1.312;2023-07-08T12:21:29;17.88;;;5.32;;
31728;SDS011;18309;43.658;1.312;2023-07-08T12:24:02;12.93;;;5.07;;
31728;SDS011;18309;43.658;1.312;2023-07-08T12:26:29;20.33;;;6.45;;
31728;SDS011;18309;43.658;1.312;2023-07-08T12:28:56;15.02;;;4.80;;
31728;SDS011;18309;43.658;1.312;2023-07-08T12:31:22;18.10;;;4.85;;
31728;SDS011;18309;43.658;1.312;2023-07-08T12:33:50;12.15;;;4.82;;
31728;SDS011;18309;43.658;1.312;2023-07-08T12:36:24;13.45;;;4.88;;
31728;SDS011;18309;43.658;1.312;2023-07-08T12:38:53;23.33;;;5.60;;
31728;SDS011;18309;43.658;1.312;2023-07-08T12:41:25;17.15;;;5.32;;
31728;SDS011;18309;43.658;1.312;2023-07-08T12:43:54;24.42;;;5.28;;
31728;SDS011;18309;43.658;1.312;2023-07-08T12:46:21;16.70;;;5.68;;
31728;SDS011;18309;43.658;1.312;2023-07-08T12:48:48;15.45;;;4.60;;
31728;SDS011;18309;43.658;1.312;2023-07-08T12:51:15;18.95;;;4.93;;
31728;SDS011;18309;43.658;1.312;2023-07-08T12:53:42;11.48;;;4.60;;
31728;SDS011;18309;43.658;1.312;2023-07-08T12:56:09;15.30;;;4.88;;
31728;SDS011;18309;43.658;1.312;2023-07-08T12:58:43;15.35;;;5.22;;
31728;SDS011;18309;43.658;1.312;2023-07-08T13:01:15;17.15;;;4.82;;
31728;SDS011;18309;43.658;1.312;2023-07-08T13:03:43;20.98;;;6.03;;
31728;SDS011;18309;43.658;1.312;2023-07-08T13:06:14;17.30;;;5.13;;
31728;SDS011;18309;43.658;1.312;2023-07-08T13:08:43;19.00;;;5.55;;
31728;SDS011;18309;43.658;1.312;2023-07-08T13:11:11;14.90;;;5.45;;
31728;SDS011;18309;43.658;1.312;2023-07-08T13:14:01;14.07;;;4.80;;
31728;SDS011;18309;43.658;1.312;2023-07-08T13:16:30;16.27;;;5.22;;
31728;SDS011;18309;43.658;1.312;2023-07-08T13:18:57;16.38;;;4.95;;
31728;SDS011;18309;43.658;1.312;2023-07-08T13:21:23;14.50;;;5.22;;
31728;SDS011;18309;43.658;1.312;2023-07-08T13:23:53;15.15;;;4.90;;
31728;SDS011;18309;43.658;1.312;2023-07-08T13:26:20;20.13;;;4.90;;
31728;SDS011;18309;43.658;1.312;2023-07-08T13:28:48;15.93;;;4.55;;
31728;SDS011;18309;43.658;1.312;2023-07-08T13:31:21;11.95;;;4.68;;
31728;SDS011;18309;43.658;1.312;2023-07-08T13:33:54;13.18;;;4.72;;
31728;SDS011;18309;43.658;1.312;2023-07-08T13:36:27;9.85;;;4.00;;
31728;SDS011;18309;43.658;1.312;2023-07-08T13:38:56;13.43;;;4.65;;
31728;SDS011;18309;43.658;1.312;2023-07-08T13:41:23;13.73;;;4.97;;
31728;SDS011;18309;43.658;1.312;2023-07-08T13:43:49;16.80;;;4.32;;
31728;SDS011;18309;43.658;1.312;2023-07-08T13:46:28;10.30;;;4.68;;
31728;SDS011;18309;43.658;1.312;2023-07-08T13:49:15;15.90;;;4.95;;
31728;SDS011;18309;43.658;1.312;2023-07-08T13:51:44;13.00;;;4.22;;
31728;SDS011;18309;43.658;1.312;2023-07-08T13:54:24;14.23;;;4.55;;
31728;SDS011;18309;43.658;1.312;2023-07-08T13:56:56;8.85;;;4.25;;
31728;SDS011;18309;43.658;1.312;2023-07-08T13:59:25;13.35;;;4.35;;
31728;SDS011;18309;43.658;1.312;2023-07-08T14:01:52;11.00;;;4.28;;
31728;SDS011;18309;43.658;1.312;2023-07-08T14:04:23;11.90;;;4.40;;
31728;SDS011;18309;43.658;1.312;2023-07-08T14:06:58;12.55;;;4.13;;
31728;SDS011;18309;43.658;1.312;2023-07-08T14:09:24;15.40;;;4.20;;
31728;SDS011;18309;43.658;1.312;2023-07-08T14:11:50;14.35;;;4.75;;
31728;SDS011;18309;43.658;1.312;2023-07-08T14:14:17;19.48;;;4.88;;
31728;SDS011;18309;43.658;1.312;2023-07-08T14:16:45;10.65;;;4.05;;
31728;SDS011;18309;43.658;1.312;2023-07-08T14:19:14;16.83;;;4.40;;
31728;SDS011;18309;43.658;1.312;2023-07-08T14:21:50;9.57;;;3.88;;
31728;SDS011;18309;43.658;1.312;2023-07-08T14:24:19;16.45;;;3.83;;
31728;SDS011;18309;43.658;1.312;2023-07-08T14:26:45;10.60;;;3.80;;
31728;SDS011;18309;43.658;1.312;2023-07-08T14:29:12;15.57;;;4.35;;
31728;SDS011;18309;43.658;1.312;2023-07-08T14:31:38;17.45;;;4.13;;
31728;SDS011;18309;43.658;1.312;2023-07-08T14:34:09;9.88;;;4.32;;
31728;SDS011;18309;43.658;1.312;2023-07-08T14:36:37;11.25;;;3.72;;
31728;SDS011;18309;43.658;1.312;2023-07-08T14:39:13;10.48;;;3.75;;
31728;SDS011;18309;43.658;1.312;2023-07-08T14:41:40;18.83;;;3.65;;
31728;SDS011;18309;43.658;1.312;2023-07-08T14:44:10;14.05;;;4.13;;
31728;SDS011;18309;43.658;1.312;2023-07-08T14:46:43;10.38;;;3.72;;
31728;SDS011;18309;43.658;1.312;2023-07-08T14:49:16;15.48;;;4.00;;
31728;SDS011;18309;43.658;1.312;2023-07-08T14:51:44;15.05;;;3.53;;
31728;SDS011;18309;43.658;1.312;2023-07-08T14:54:09;15.95;;;3.70;;
31728;SDS011;18309;43.658;1.312;2023-07-08T14:56:35;14.77;;;4.05;;
31728;SDS011;18309;43.658;1.312;2023-07-08T14:59:01;15.15;;;3.85;;
31728;SDS011;18309;43.658;1.312;2023-07-08T15:01:27;12.50;;;4.18;;
31728;SDS011;18309;43.658;1.312;2023-07-08T15:03:55;12.18;;;3.88;;
31728;SDS011;18309;43.658;1.312;2023-07-08T15:06:21;10.80;;;4.07;;
31728;SDS011;18309;43.658;1.312;2023-07-08T15:08:48;18.88;;;4.30;;
31728;SDS011;18309;43.658;1.312;2023-07-08T15:11:14;14.32;;;4.45;;
31728;SDS011;18309;43.658;1.312;2023-07-08T15:13:41;15.55;;;4.15;;
31728;SDS011;18309;43.658;1.312;2023-07-08T15:16:13;8.98;;;3.88;;
31728;SDS011;18309;43.658;1.312;2023-07-08T15:18:40;8.40;;;3.88;;
31728;SDS011;18309;43.658;1.312;2023-07-08T15:21:17;11.15;;;4.00;;
31728;SDS011;18309;43.658;1.312;2023-07-08T15:23:42;10.48;;;4.10;;
31728;SDS011;18309;43.658;1.312;2023-07-08T15:26:11;16.63;;;4.00;;
31728;SDS011;18309;43.658;1.312;2023-07-08T15:28:42;9.65;;;3.97;;
31728;SDS011;18309;43.658;1.312;2023-07-08T15:31:18;18.02;;;4.00;;
31728;SDS011;18309;43.658;1.312;2023-07-08T15:33:49;18.35;;;4.55;;
31728;SDS011;18309;43.658;1.312;2023-07-08T15:36:15;13.80;;;3.85;;
31728;SDS011;18309;43.658;1.312;2023-07-08T15:38:41;11.77;;;3.97;;
31728;SDS011;18309;43.658;1.312;2023-07-08T15:43:46;16.40;;;4.57;;
31728;SDS011;18309;43.658;1.312;2023-07-08T15:46:13;10.90;;;3.47;;
31728;SDS011;18309;43.658;1.312;2023-07-08T15:48:39;15.73;;;3.75;;
31728;SDS011;18309;43.658;1.312;2023-07-08T15:51:05;11.65;;;4.07;;
31728;SDS011;18309;43.658;1.312;2023-07-08T15:53:31;22.25;;;4.40;;
31728;SDS011;18309;43.658;1.312;2023-07-08T15:55:56;9.95;;;3.63;;
31728;SDS011;18309;43.658;1.312;2023-07-08T16:00:48;8.60;;;3.58;;
31728;SDS011;18309;43.658;1.312;2023-07-08T16:03:24;9.70;;;3.80;;